Time;durP1;ratioP1;P1;durP2;ratioP2;P2;SDS_P1;SDS_P2;PMS_P1;PMS_P2;Temp;Humidity;BMP_temperature;BMP_pressure;BME280_temperature;BME280_humidity;BME280_pressure;Samples;Min_cycle;Max_cycle;Signal;HPM_P1;HPM_P2
2023/10/19 06:58:39;;;;;;;426.27;226.77;;;;;;;8.08;76.71;98630.34;6236919;23;20004;-89
2023/10/19 07:01:10;;;;;;;178.50;106.30;;;;;;;8.32;75.73;98677.09;6135008;23;20028;-91
2023/10/19 07:03:45;;;;;;;13.88;9.52;;;;;;;8.38;76.41;98691.41;6163831;23;20028;-91
2023/10/19 07:06:32;;;;;;;18.25;8.88;;;;;;;8.32;75.87;98677.09;6187508;23;20101;-90
2023/10/19 07:09:23;;;;;;;16.67;8.85;;;;;;;8.38;76.41;98689.50;6214213;23;20028;-90
2023/10/19 07:11:57;;;;;;;13.20;7.40;;;;;;;8.43;75.85;98693.97;6092397;23;20080;-90
2023/10/19 07:14:23;;;;;;;16.55;7.50;;;;;;;7.98;75.66;98629.53;6179695;23;20020;-90
2023/10/19 07:16:51;;;;;;;11.93;7.28;;;;;;;8.52;75.53;98696.75;6180658;23;20017;-90
2023/10/19 07:19:20;;;;;;;13.30;8.48;;;;;;;8.07;75.62;98636.94;6182795;23;20083;-89
2023/10/19 07:21:48;;;;;;;18.92;7.88;;;;;;;8.44;75.37;98707.31;6154396;23;20035;-91
2023/10/19 07:24:23;;;;;;;13.13;7.35;;;;;;;8.02;74.93;98634.34;6184909;23;20012;-89
2023/10/19 07:27:01;;;;;;;18.85;8.35;;;;;;;8.58;75.58;98707.19;6177557;23;20043;-89
2023/10/19 07:29:30;;;;;;;12.23;7.35;;;;;;;8.28;75.36;98648.06;6174418;23;20020;-89
2023/10/19 07:31:58;;;;;;;11.93;7.22;;;;;;;8.41;74.23;98663.53;6176073;23;20091;-90
2023/10/19 07:34:28;;;;;;;18.50;9.30;;;;;;;8.60;75.34;98666.00;6154699;23;20031;-91
2023/10/19 07:36:55;;;;;;;11.00;7.40;;;;;;;8.15;74.83;98604.31;6163141;23;20023;-91
2023/10/19 07:39:22;;;;;;;;;;;;;;;8.94;74.78;98700.75;6165837;23;20025;-91
2023/10/19 07:41:50;;;;;;;13.02;7.78;;;;;;;8.05;74.16;98573.84;6189112;23;19915;-90
2023/10/19 07:44:18;;;;;;;14.93;8.10;;;;;;;8.17;74.63;98591.16;6165994;23;19996;-90
2023/10/19 07:46:44;;;;;;;10.52;6.72;;;;;;;8.39;74.00;98625.72;6164632;23;20026;-89
2023/10/19 07:49:14;;;;;;;12.05;7.13;;;;;;;8.90;73.69;98707.94;6165236;23;20048;-89
2023/10/19 07:51:51;;;;;;;11.45;7.68;;;;;;;8.30;73.20;98622.13;6190780;23;20004;-91
2023/10/19 07:54:21;;;;;;;18.15;9.15;;;;;;;8.45;73.55;98675.41;6188002;23;19997;-90
2023/10/19 07:56:50;;;;;;;19.90;8.50;;;;;;;7.99;74.04;98603.91;6167660;23;20000;-90
2023/10/19 07:59:18;;;;;;;13.77;7.63;;;;;;;8.06;73.91;98638.84;6187181;23;20028;-90
2023/10/19 08:01:51;;;;;;;10.57;7.32;;;;;;;8.49;74.50;98717.25;6240331;23;20012;-90
2023/10/19 08:04:28;;;;;;;9.60;6.38;;;;;;;7.65;75.07;98601.81;6168335;23;20027;-89
2023/10/19 08:06:56;;;;;;;12.80;7.82;;;;;;;8.04;75.54;98671.00;6190864;23;20051;-90
2023/10/19 08:09:24;;;;;;;10.15;6.60;;;;;;;7.63;75.50;98608.69;6184493;23;20017;-91
2023/10/19 08:14:52;;;;;;;10.60;6.55;;;;;;;8.19;75.22;98658.94;6228178;23;20036;-91
2023/10/19 08:17:20;;;;;;;10.25;6.68;;;;;;;8.31;75.27;98683.66;6180181;23;20098;-92
2023/10/19 08:19:47;;;;;;;12.68;7.70;;;;;;;8.20;74.99;98653.16;6178797;23;20016;-91
2023/10/19 08:22:14;;;;;;;14.50;8.52;;;;;;;8.23;73.29;98649.00;6177349;23;20013;-90
2023/10/19 08:24:45;;;;;;;17.40;8.23;;;;;;;8.78;73.05;98718.66;6162041;23;20051;-89
2023/10/19 08:27:17;;;;;;;12.75;7.85;;;;;;;8.79;73.11;98718.31;6132985;23;20059;-90
2023/10/19 08:29:50;;;;;;;14.00;6.97;;;;;;;8.67;73.63;98718.91;6179781;23;20040;-89
2023/10/19 08:32:23;;;;;;;12.23;6.30;;;;;;;8.19;73.92;98667.91;6177390;23;20017;-91
2023/10/19 08:34:54;;;;;;;9.30;6.30;;;;;;;8.42;72.93;98730.50;6180415;23;20104;-90
2023/10/19 08:37:21;;;;;;;17.30;7.85;;;;;;;8.22;74.57;98669.19;6155090;23;20021;-89
2023/10/19 08:39:50;;;;;;;15.65;7.78;;;;;;;8.30;73.54;98689.41;6157326;23;20082;-93
2023/10/19 08:42:51;;;;;;;12.57;7.97;;;;;;;8.46;74.50;98720.59;6131667;23;20020;-92
2023/10/19 08:45:18;;;;;;;12.65;7.93;;;;;;;7.94;73.58;98655.75;6157630;23;20017;-93
2023/10/19 08:48:02;;;;;;;14.82;7.72;;;;;;;8.10;74.83;98693.47;6157331;23;20027;-90
2023/10/19 08:50:30;;;;;;;16.35;6.95;;;;;;;7.54;75.25;98611.34;6164748;23;20040;-90
2023/10/19 08:52:59;;;;;;;9.73;6.53;;;;;;;7.86;75.45;98685.66;6187151;23;20038;-91
2023/10/19 08:55:25;;;;;;;13.63;7.70;;;;;;;7.63;76.00;98666.59;6157178;23;20021;-90
2023/10/19 08:57:54;;;;;;;12.15;7.43;;;;;;;7.40;76.66;98648.66;6181360;23;20020;-91
2023/10/19 09:00:24;;;;;;;13.57;7.75;;;;;;;7.79;77.20;98710.56;6155973;23;20016;-93
2023/10/19 09:06:30;;;;;;;10.73;5.55;;;;;;;7.50;78.08;98660.09;6206758;23;20017;-91
2023/10/19 09:09:19;;;;;;;8.68;4.97;;;;;;;7.73;77.29;98698.19;6123888;23;20371;-91
2023/10/19 09:12:13;;;;;;;10.82;4.80;;;;;;;7.77;78.11;98708.13;6153682;23;20025;-92
2023/10/19 09:14:43;;;;;;;6.72;4.10;;;;;;;7.86;77.34;98705.50;6102347;23;20022;-92
2023/10/19 09:17:28;;;;;;;7.05;4.05;;;;;;;7.28;77.71;98622.03;6146113;23;20371;-90
2023/10/19 09:20:27;;;;;;;7.40;4.50;;;;;;;7.91;77.84;98694.50;6132414;23;20017;-91
2023/10/19 09:22:57;;;;;;;7.75;4.50;;;;;;;7.99;78.03;98703.81;6123016;23;20025;-90
2023/10/19 09:25:24;;;;;;;6.90;4.75;;;;;;;7.54;77.69;98631.16;6074543;23;20115;-93
2023/10/19 09:28:04;;;;;;;5.93;4.18;;;;;;;7.88;77.46;98675.22;6095139;23;20021;-90
2023/10/19 09:30:33;;;;;;;5.65;4.25;;;;;;;7.77;78.25;98648.28;6165137;23;20025;-90
2023/10/19 09:33:02;;;;;;;9.50;5.13;;;;;;;8.10;77.20;98704.34;6115646;23;20048;-89
2023/10/19 09:35:31;;;;;;;9.23;5.05;;;;;;;7.83;77.80;98654.41;6118567;23;20023;-89
2023/10/19 09:37:57;;;;;;;11.93;4.80;;;;;;;8.41;77.39;98726.16;6095645;23;20017;-91
2023/10/19 09:40:24;;;;;;;13.10;4.70;;;;;;;7.87;76.84;98646.44;6120535;23;20006;-92
2023/10/19 09:42:58;;;;;;;;;;;;;;;8.57;76.89;98749.16;6101850;23;20060;-91
2023/10/19 09:45:30;;;;;;;12.63;5.20;;;;;;;8.42;77.50;98703.28;6143699;23;19947;-92
2023/10/19 09:47:56;;;;;;;14.77;5.38;;;;;;;8.37;76.46;98673.41;6096904;23;20002;-90
2023/10/19 09:50:30;;;;;;;7.13;4.05;;;;;;;8.45;75.80;98670.75;6125795;23;20027;-93
2023/10/19 09:53:05;;;;;;;5.65;3.40;;;;;;;8.73;76.52;98708.69;6145995;23;20510;-92
2023/10/19 09:55:38;;;;;;;4.65;2.65;;;;;;;8.97;74.05;98740.97;6166104;23;20018;-90
2023/10/19 09:58:33;;;;;;;5.88;3.17;;;;;;;9.04;75.69;98741.34;6108119;23;20022;-89
2023/10/19 10:01:02;;;;;;;17.75;5.05;;;;;;;8.91;74.09;98707.63;6209733;23;20520;-90
2023/10/19 10:03:57;;;;;;;11.98;5.35;;;;;;;8.89;74.88;98707.13;6205627;23;20060;-89
2023/10/19 10:06:33;;;;;;;17.98;7.88;;;;;;;9.09;75.68;98738.44;6210908;23;20027;-88
2023/10/19 10:09:03;;;;;;;16.95;8.50;;;;;;;8.82;75.27;98693.16;6213319;23;20024;-88
2023/10/19 10:11:45;;;;;;;13.02;7.55;;;;;;;9.18;74.19;98743.94;6188218;23;20064;-92
2023/10/19 10:15:02;;;;;;;11.55;7.00;;;;;;;8.72;74.81;98657.25;6162868;23;20027;-88
2023/10/19 10:17:40;;;;;;;14.02;8.23;;;;;;;9.36;74.64;98750.22;6188682;23;20000;-92
2023/10/19 10:20:24;;;;;;;18.65;8.82;;;;;;;9.39;74.54;98753.09;6162579;23;20027;-91
2023/10/19 10:23:32;;;;;;;22.95;9.13;;;;;;;9.03;73.53;98684.38;6186045;23;20001;-94
2023/10/19 10:26:24;;;;;;;26.40;9.43;;;;;;;9.39;73.42;98727.75;6241271;23;20024;-91
2023/10/19 10:29:14;;;;;;;21.63;9.63;;;;;;;9.59;74.14;98740.75;6157692;23;20084;-92
2023/10/19 10:31:46;;;;;;;19.45;8.75;;;;;;;9.59;73.50;98737.25;6184687;23;20226;-96
2023/10/19 10:34:40;;;;;;;16.17;9.90;;;;;;;9.65;73.91;98742.22;6111167;23;20059;-91
2023/10/19 10:37:08;;;;;;;16.05;8.75;;;;;;;9.23;73.16;98672.06;6160937;23;20106;-93
2023/10/19 10:39:36;;;;;;;16.20;8.15;;;;;;;9.63;73.95;98749.13;6157733;23;20067;-91
2023/10/19 10:42:10;;;;;;;11.65;6.15;;;;;;;9.39;73.92;98709.47;6155401;23;20013;-90
2023/10/19 10:44:42;;;;;;;8.60;5.65;;;;;;;9.44;73.52;98704.97;6181246;23;20024;-91
2023/10/19 10:47:24;;;;;;;7.68;4.95;;;;;;;9.73;73.62;98748.78;6185801;23;20044;-92
2023/10/19 10:50:10;;;;;;;10.40;4.80;;;;;;;9.16;73.26;98658.91;6152828;23;20021;-90
2023/10/19 10:53:11;;;;;;;9.98;4.97;;;;;;;9.45;74.01;98698.41;6175734;23;20061;-88
2023/10/19 10:55:40;;;;;;;10.57;4.65;;;;;;;9.39;73.55;98681.38;6097169;23;20018;-92
2023/10/19 10:58:07;;;;;;;7.30;4.40;;;;;;;9.52;73.76;98704.19;6077240;23;20052;-94
2023/10/19 11:00:46;;;;;;;7.07;4.22;;;;;;;9.44;73.46;98708.50;6147414;23;20014;-90
2023/10/19 11:03:50;;;;;;;8.07;4.45;;;;;;;8.96;72.97;98635.00;6237774;23;20024;-92
2023/10/19 11:06:18;;;;;;;10.85;4.88;;;;;;;9.63;74.83;98763.59;6167536;23;20039;-92
2023/10/19 11:08:56;;;;;;;7.05;4.10;;;;;;;9.31;74.42;98713.00;6191336;23;20141;-91
2023/10/19 11:11:26;;;;;;;5.97;3.85;;;;;;;9.20;73.72;98708.94;6171776;23;20031;-93
2023/10/19 11:13:52;;;;;;;6.70;4.25;;;;;;;8.88;74.44;98669.31;6192533;23;20020;-86
2023/10/19 11:16:23;;;;;;;6.75;3.72;;;;;;;9.00;74.60;98688.53;6215433;23;19997;-86
2023/10/19 11:18:50;;;;;;;7.57;4.13;;;;;;;8.93;74.65;98680.03;6167309;23;20024;-89
2023/10/19 11:21:22;;;;;;;13.32;4.30;;;;;;;9.47;74.69;98764.34;6165528;23;20013;-89
2023/10/19 11:23:52;;;;;;;13.05;3.85;;;;;;;9.21;73.76;98717.97;6212554;23;20047;-94
2023/10/19 11:26:25;;;;;;;10.50;4.38;;;;;;;8.79;72.97;98654.84;6212169;23;20020;-93
2023/10/19 11:29:09;;;;;;;14.30;4.80;;;;;;;9.53;73.58;98765.78;6186146;23;20027;-95
2023/10/19 11:31:37;;;;;;;6.65;4.32;;;;;;;9.22;73.31;98746.81;6210179;23;20043;-91
2023/10/19 11:34:20;;;;;;;9.50;4.80;;;;;;;9.09;74.20;98710.38;6183468;23;20020;-94
2023/10/19 11:37:10;;;;;;;8.73;4.10;;;;;;;9.27;73.89;98728.41;6168076;23;20017;-94
2023/10/19 11:40:14;;;;;;;8.70;3.50;;;;;;;9.06;74.48;98690.00;6214211;23;20025;-94
2023/10/19 11:45:36;;;;;;;6.40;4.32;;;;;;;9.25;74.45;98716.19;6239424;23;20823;-93
2023/10/19 11:48:08;;;;;;;10.57;4.10;;;;;;;9.00;74.69;98683.09;6190550;23;20044;-94
2023/10/19 12:15:32;;;;;;;29.05;7.40;;;;;;;9.48;74.54;98747.66;6209754;23;20013;-94
2023/10/19 12:18:04;;;;;;;16.42;5.63;;;;;;;8.87;74.92;98662.22;6212802;23;20020;-93
2023/10/19 12:21:17;;;;;;;13.18;5.20;;;;;;;9.50;74.73;98739.16;6142234;23;20084;-93
2023/10/19 12:24:40;;;;;;;9.80;4.93;;;;;;;9.54;74.75;98754.59;6039598;23;20022;-95
2023/10/19 12:27:40;;;;;;;8.20;4.50;;;;;;;8.83;74.28;98651.16;6152601;23;20013;-93
2023/10/19 12:37:08;;;;;;;;;;;;;;;;;;;;;
2023/10/19 12:40:28;;;;;;;7.75;4.20;;;;;;;8.76;74.52;98652.75;6135392;23;20029;-95
2023/10/19 12:43:51;;;;;;;;;;;;;;;;;;;;;
2023/10/19 12:46:57;;;;;;;10.63;4.50;;;;;;;9.39;73.97;98763.22;6028600;23;20035;-90
2023/10/19 12:49:25;;;;;;;11.07;5.32;;;;;;;9.07;73.60;98729.81;6006088;23;20071;-88
2023/10/19 12:51:52;;;;;;;13.57;5.65;;;;;;;9.03;74.25;98730.72;6028565;23;20076;-91
2023/10/19 12:54:18;;;;;;;7.38;4.47;;;;;;;8.86;73.50;98717.88;6005354;23;20227;-94
2023/10/19 12:56:45;;;;;;;6.70;4.22;;;;;;;8.73;73.07;98716.84;6025911;23;20019;-90
2023/10/19 12:59:11;;;;;;;11.13;4.40;;;;;;;8.53;73.81;98680.09;6030949;23;20039;-92
2023/10/19 13:01:54;;;;;;;7.65;3.63;;;;;;;8.77;73.62;98706.13;6000532;23;20030;-93
2023/10/19 13:04:25;;;;;;;7.25;4.35;;;;;;;8.78;73.13;98694.13;5971771;24;20131;-93
2023/10/19 13:06:51;;;;;;;6.32;3.72;;;;;;;8.66;73.04;98695.50;5968298;24;20341;-91
2023/10/19 13:09:30;;;;;;;6.37;3.87;;;;;;;8.74;73.21;98713.03;5946760;24;20035;-90
2023/10/19 13:11:59;;;;;;;8.52;4.57;;;;;;;8.82;73.25;98723.16;6000628;23;20789;-95
2023/10/19 13:15:12;;;;;;;7.63;4.43;;;;;;;9.11;73.11;98763.47;6061397;23;20071;-90
2023/10/19 13:18:07;;;;;;;10.27;4.28;;;;;;;9.14;73.52;98768.31;6052961;23;20034;-87
2023/10/19 13:20:34;;;;;;;7.85;4.90;;;;;;;9.15;73.62;98767.19;6030716;23;20023;-87
2023/10/19 13:23:04;;;;;;;6.55;4.15;;;;;;;8.83;73.16;98726.66;6039430;23;20112;-90
2023/10/19 13:28:18;;;;;;;11.85;4.53;;;;;;;9.15;74.30;98771.84;6065832;23;20022;-92
2023/10/19 13:30:47;;;;;;;8.27;4.43;;;;;;;8.91;74.07;98745.78;6064857;23;20052;-86
2023/10/19 13:33:15;;;;;;;10.70;4.60;;;;;;;9.13;75.10;98774.06;6135802;23;20451;-92
2023/10/19 13:35:45;;;;;;;8.00;4.32;;;;;;;9.12;74.80;98767.00;6111199;23;20053;-89
2023/10/19 13:38:15;;;;;;;9.52;4.50;;;;;;;8.73;74.84;98722.31;6089534;23;20018;-89
2023/10/19 13:40:44;;;;;;;9.63;4.35;;;;;;;8.80;75.24;98730.81;6043132;23;20028;-90
2023/10/19 13:43:31;;;;;;;10.18;4.47;;;;;;;9.09;75.63;98782.06;6092918;23;20042;-93
2023/10/19 13:46:15;;;;;;;9.85;4.10;;;;;;;8.76;75.60;98731.78;6119739;23;20077;-90
2023/10/19 13:48:43;;;;;;;6.82;4.10;;;;;;;8.86;76.04;98756.00;6148330;23;20362;-90
2023/10/19 13:51:15;;;;;;;9.50;4.68;;;;;;;8.55;76.24;98704.31;6203735;23;20038;-89
2023/10/19 13:53:44;;;;;;;7.28;4.45;;;;;;;9.04;76.46;98778.69;6208377;23;20022;-90
2023/10/19 13:56:23;;;;;;;8.05;4.93;;;;;;;8.59;76.57;98713.44;6156917;23;20024;-91
2023/10/19 13:58:51;;;;;;;9.60;4.97;;;;;;;8.56;76.36;98720.31;6153869;23;20024;-90
2023/10/19 14:01:24;;;;;;;10.73;5.85;;;;;;;8.61;76.75;98730.25;6155758;23;20647;-90
2023/10/19 14:03:54;;;;;;;11.30;5.38;;;;;;;8.61;76.73;98733.81;6203789;23;20024;-91
2023/10/19 14:06:27;;;;;;;10.38;5.22;;;;;;;9.03;76.88;98798.88;6207979;23;20446;-91
2023/10/19 14:08:56;;;;;;;10.15;5.72;;;;;;;8.39;76.61;98698.47;6166289;23;20025;-90
2023/10/19 14:11:27;;;;;;;12.80;5.30;;;;;;;8.48;76.83;98721.09;6185992;23;20012;-92
2023/10/19 14:14:00;;;;;;;9.88;5.40;;;;;;;8.55;76.91;98726.09;6186022;23;19992;-93
2023/10/19 14:17:23;;;;;;;12.25;6.35;;;;;;;8.98;76.69;98793.59;6115274;23;20012;-89
2023/10/19 14:19:55;;;;;;;12.65;5.75;;;;;;;8.68;77.01;98752.44;6208793;23;20020;-93
2023/10/19 14:22:21;;;;;;;8.68;5.57;;;;;;;8.33;77.20;98699.66;6156773;23;20012;-93
2023/10/19 14:24:49;;;;;;;10.05;5.35;;;;;;;8.33;77.31;98705.91;6181896;23;20023;-92
2023/10/19 14:27:20;;;;;;;11.57;6.00;;;;;;;8.63;77.42;98758.00;6163964;23;20045;-93
2023/10/19 14:30:45;;;;;;;9.77;4.90;;;;;;;8.74;77.53;98792.06;6207480;23;20072;-91
2023/10/19 14:33:12;;;;;;;16.20;5.25;;;;;;;8.37;77.94;98731.41;6181353;23;20101;-90
2023/10/19 14:35:41;;;;;;;12.18;5.22;;;;;;;8.56;78.11;98766.63;6162947;23;20020;-90
2023/10/19 14:38:12;;;;;;;13.35;5.28;;;;;;;8.07;77.87;98686.72;6163265;23;20012;-91
2023/10/19 14:40:43;;;;;;;12.43;5.20;;;;;;;8.61;78.20;98769.22;6162968;23;20027;-91
2023/10/19 14:43:12;;;;;;;11.60;5.10;;;;;;;8.61;77.76;98771.13;6188576;23;20021;-93
2023/10/19 14:45:42;;;;;;;13.93;4.95;;;;;;;8.49;77.81;98749.94;6163248;23;20532;-93
2023/10/19 14:48:11;;;;;;;14.30;5.38;;;;;;;8.58;77.99;98764.41;6186455;23;20072;-91
2023/10/19 14:50:38;;;;;;;11.18;5.00;;;;;;;8.52;77.91;98762.94;6162763;23;20048;-91
2023/10/19 14:53:09;;;;;;;10.88;4.93;;;;;;;8.58;77.86;98786.19;6159973;23;20655;-91
2023/10/19 14:55:38;;;;;;;10.95;5.03;;;;;;;8.47;78.24;98769.28;6184706;23;20477;-90
2023/10/19 14:58:09;;;;;;;15.77;4.68;;;;;;;8.12;78.32;98721.19;6155205;23;20025;-90
2023/10/19 15:00:42;;;;;;;9.57;4.90;;;;;;;8.27;78.46;98755.38;6159690;23;20016;-90
2023/10/19 15:03:09;;;;;;;15.90;5.63;;;;;;;8.29;78.53;98753.16;6179792;23;20028;-92
2023/10/19 15:05:40;;;;;;;16.77;6.00;;;;;;;8.72;78.33;98818.81;6182113;23;20807;-90
2023/10/19 15:08:16;;;;;;;13.50;6.40;;;;;;;8.75;78.61;98826.34;6155989;23;20020;-90
2023/10/19 15:10:43;;;;;;;16.15;7.13;;;;;;;8.29;78.94;98761.31;6158611;23;20133;-93
2023/10/19 15:13:15;;;;;;;14.40;6.57;;;;;;;8.46;78.71;98794.13;6145917;23;20037;-90
2023/10/19 15:15:41;;;;;;;9.35;6.18;;;;;;;7.97;78.46;98714.19;6096838;23;20081;-90
2023/10/19 15:18:09;;;;;;;12.40;5.95;;;;;;;8.43;78.98;98794.75;6145513;23;20097;-93
2023/10/19 15:20:37;;;;;;;9.30;5.28;;;;;;;8.28;79.32;98776.88;6133117;23;20005;-93
2023/10/19 15:23:16;;;;;;;13.55;4.80;;;;;;;8.37;79.45;98790.53;6160056;23;20021;-92
2023/10/19 15:25:54;;;;;;;8.18;4.47;;;;;;;8.42;79.47;98796.69;6154158;23;20048;-91
2023/10/19 15:28:22;;;;;;;8.73;4.80;;;;;;;8.05;79.24;98743.41;6153723;23;20035;-91
2023/10/19 15:30:50;;;;;;;8.40;4.32;;;;;;;8.26;79.35;98781.81;6155878;23;20045;-92
2023/10/19 15:33:18;;;;;;;11.35;5.05;;;;;;;7.80;79.29;98705.91;6156044;23;20028;-92
2023/10/19 15:35:51;;;;;;;6.63;4.45;;;;;;;7.95;79.71;98739.00;6130959;23;20047;-90
2023/10/19 15:38:25;;;;;;;9.50;5.70;;;;;;;7.91;79.54;98742.66;6135139;23;20816;-91
2023/10/19 15:40:54;;;;;;;12.63;5.45;;;;;;;7.86;79.71;98735.41;6157406;23;20052;-94
2023/10/19 15:43:43;;;;;;;15.45;7.38;;;;;;;8.04;79.58;98755.38;6157223;23;20021;-93
2023/10/19 15:46:24;;;;;;;11.38;5.25;;;;;;;8.17;79.57;98787.19;6156596;23;20040;-92
2023/10/19 15:49:02;;;;;;;12.60;6.00;;;;;;;8.03;79.89;98758.44;6131368;23;20096;-92
2023/10/19 15:51:36;;;;;;;9.13;5.82;;;;;;;8.10;80.21;98781.38;6139957;23;20024;-94
2023/10/19 15:54:27;;;;;;;11.00;5.93;;;;;;;8.00;79.66;98760.66;6160510;23;20004;-92
2023/10/19 15:56:54;;;;;;;15.40;7.22;;;;;;;7.95;79.82;98760.00;6135636;23;20032;-90
2023/10/19 15:59:23;;;;;;;14.03;7.33;;;;;;;7.99;80.02;98760.97;6136118;23;20021;-92
2023/10/19 16:01:54;;;;;;;14.80;8.35;;;;;;;8.49;80.45;98831.66;6137786;23;20025;-90
2023/10/19 16:04:23;;;;;;;17.85;8.88;;;;;;;7.73;80.17;98714.50;6173183;23;20121;-92
2023/10/19 16:06:50;;;;;;;;;;;;;;;8.46;80.18;98826.81;6166962;23;20031;-89
2023/10/19 16:09:19;;;;;;;14.77;8.82;;;;;;;8.32;80.28;98812.44;6167211;23;19923;-91
2023/10/19 16:12:08;;;;;;;16.88;9.57;;;;;;;8.30;80.07;98801.84;6167579;23;20051;-91
2023/10/19 16:14:41;;;;;;;16.85;10.00;;;;;;;8.29;79.99;98794.81;6192535;23;20054;-89
2023/10/19 16:17:13;;;;;;;20.42;10.30;;;;;;;8.09;79.38;98777.06;6166581;23;20031;-90
2023/10/19 16:19:41;;;;;;;19.58;10.90;;;;;;;8.47;79.59;98825.69;6167835;23;20005;-92
2023/10/19 16:22:15;;;;;;;21.77;10.20;;;;;;;8.15;79.36;98788.63;6166627;23;20020;-89
2023/10/19 16:24:43;;;;;;;18.48;10.68;;;;;;;7.63;80.38;98715.56;6189307;23;20027;-89
2023/10/19 16:27:12;;;;;;;18.73;10.05;;;;;;;7.58;81.10;98714.88;6140063;23;20028;-90
2023/10/19 16:29:44;;;;;;;19.40;9.23;;;;;;;7.92;80.37;98755.97;6188172;23;20001;-91
2023/10/19 16:32:14;;;;;;;17.83;9.07;;;;;;;7.49;80.39;98682.19;6157553;23;20088;-90
2023/10/19 16:34:42;;;;;;;19.13;9.82;;;;;;;7.98;80.43;98759.38;6188964;23;20027;-92
2023/10/19 16:37:08;;;;;;;21.30;8.90;;;;;;;7.99;79.91;98760.97;6161230;23;20004;-92
2023/10/19 16:40:18;;;;;;;15.70;8.13;;;;;;;8.02;79.87;98757.63;6162306;23;20067;-92
2023/10/19 16:43:23;;;;;;;14.77;8.98;;;;;;;7.82;79.88;98737.16;6191962;23;20017;-92
2023/10/19 16:45:54;;;;;;;17.08;8.93;;;;;;;8.32;80.14;98812.44;6133668;23;20027;-91
2023/10/19 16:51:52;;;;;;;16.50;8.90;;;;;;;7.93;80.09;98756.75;6192947;23;20233;-91
2023/10/19 16:54:19;;;;;;;18.63;9.13;;;;;;;7.80;80.30;98747.53;6181137;23;20013;-92
2023/10/19 16:56:47;;;;;;;16.27;8.55;;;;;;;8.12;80.56;98798.22;6208706;23;20020;-92
2023/10/19 16:59:19;;;;;;;14.70;8.50;;;;;;;7.90;80.32;98765.53;6162298;23;20000;-92
2023/10/19 17:01:59;;;;;;;17.30;8.80;;;;;;;7.84;80.18;98750.44;6235764;23;20005;-90
2023/10/19 17:04:27;;;;;;;16.45;9.50;;;;;;;7.84;80.21;98764.84;6156824;23;20044;-91
2023/10/19 17:06:56;;;;;;;18.70;8.95;;;;;;;7.61;80.46;98708.81;6158663;23;20025;-90
2023/10/19 17:09:24;;;;;;;17.90;9.40;;;;;;;8.12;80.26;98797.41;6191559;23;20080;-91
2023/10/19 17:11:53;;;;;;;24.48;8.93;;;;;;;8.16;80.42;98801.13;6146936;23;20009;-91
2023/10/19 17:14:21;;;;;;;17.17;8.93;;;;;;;7.87;80.50;98763.44;6097820;23;20022;-91
2023/10/19 17:17:23;;;;;;;20.80;9.18;;;;;;;8.40;80.73;98839.75;6093479;23;20022;-93
2023/10/19 17:20:13;;;;;;;21.90;9.35;;;;;;;8.15;79.95;98797.59;6101084;23;20017;-94
2023/10/19 17:22:56;;;;;;;21.27;8.50;;;;;;;8.41;80.01;98843.28;6122366;23;20025;-91
2023/10/19 17:25:31;;;;;;;20.77;8.95;;;;;;;8.00;79.47;98773.47;6118540;23;20022;-92
2023/10/19 17:27:59;;;;;;;19.38;8.52;;;;;;;8.21;79.48;98800.97;6092719;23;20233;-93
2023/10/19 17:30:57;;;;;;;14.77;8.50;;;;;;;8.35;78.74;98828.16;6070880;23;20018;-93
2023/10/19 17:39:37;;;;;;;17.05;8.57;;;;;;;7.79;78.27;98791.38;6239269;23;20570;-91
2023/10/19 17:42:11;;;;;;;20.23;8.98;;;;;;;7.76;78.01;98796.31;6216219;23;20055;-92
2023/10/19 17:45:02;;;;;;;16.52;8.38;;;;;;;7.89;78.05;98840.94;6157030;23;20028;-90
2023/10/19 17:47:38;;;;;;;16.88;9.02;;;;;;;7.41;78.43;98778.06;6188030;23;20046;-91
2023/10/19 17:50:10;;;;;;;19.35;8.35;;;;;;;7.25;78.10;98753.13;6180734;23;20029;-91
2023/10/19 17:52:40;;;;;;;19.58;9.75;;;;;;;7.50;78.27;98798.81;6178939;23;20336;-91
2023/10/19 17:55:32;;;;;;;15.82;8.30;;;;;;;7.26;78.13;98776.50;6203242;23;20017;-92
2023/10/19 17:57:59;;;;;;;14.25;8.50;;;;;;;7.05;78.22;98748.91;6121602;23;20032;-92
2023/10/19 18:00:27;;;;;;;14.93;8.57;;;;;;;7.21;78.07;98773.88;6098429;23;20021;-92
2023/10/19 18:03:06;;;;;;;14.57;7.75;;;;;;;7.19;78.25;98785.06;6149098;23;20022;-91
2023/10/19 18:05:35;;;;;;;22.45;9.30;;;;;;;7.44;78.16;98821.78;6141865;23;20099;-93
2023/10/19 18:08:02;;;;;;;16.52;8.55;;;;;;;7.18;78.37;98783.44;6172030;23;20025;-92
2023/10/19 18:10:36;;;;;;;17.40;8.32;;;;;;;7.37;78.73;98815.13;6119339;23;20017;-89
2023/10/19 18:13:04;;;;;;;12.63;7.80;;;;;;;7.60;78.79;98857.63;6145283;23;20521;-91
2023/10/19 18:15:31;;;;;;;18.40;8.07;;;;;;;7.40;78.94;98828.94;6122219;23;20077;-93
2023/10/19 18:18:00;;;;;;;12.25;7.05;;;;;;;7.42;78.84;98836.81;6149072;23;20017;-92
2023/10/19 18:20:30;;;;;;;15.30;8.10;;;;;;;7.41;78.84;98824.28;6124803;23;20018;-92
2023/10/19 18:22:59;;;;;;;15.00;7.15;;;;;;;7.68;78.63;98865.06;6149683;23;19997;-92
2023/10/19 18:25:42;;;;;;;15.98;7.93;;;;;;;7.06;78.66;98770.38;6122176;23;20029;-92
2023/10/19 18:28:10;;;;;;;14.65;7.68;;;;;;;7.38;78.79;98833.06;6162747;23;20024;-91
2023/10/19 18:30:39;;;;;;;14.43;7.55;;;;;;;7.25;78.77;98815.63;6136544;23;20088;-92
2023/10/19 18:33:08;;;;;;;15.52;7.72;;;;;;;7.24;79.29;98820.28;6162382;23;20017;-90
2023/10/19 18:35:37;;;;;;;17.90;8.95;;;;;;;7.09;79.35;98798.06;6185130;23;20027;-91
2023/10/19 18:38:10;;;;;;;17.50;9.50;;;;;;;7.55;79.61;98876.78;6211280;23;20024;-90
2023/10/19 18:40:40;;;;;;;18.88;8.45;;;;;;;7.47;79.64;98850.28;6182469;23;20013;-90
2023/10/19 18:43:28;;;;;;;13.00;7.30;;;;;;;7.26;79.15;98822.72;6160241;23;19997;-90
2023/10/19 18:45:59;;;;;;;13.50;7.30;;;;;;;7.09;79.25;98790.69;6185875;23;20024;-93
2023/10/19 18:48:27;;;;;;;14.38;8.27;;;;;;;7.35;79.00;98833.66;6157281;23;20119;-92
2023/10/19 18:51:02;;;;;;;16.65;7.63;;;;;;;6.99;78.89;98769.97;6211631;23;20043;-90
2023/10/19 18:53:30;;;;;;;14.98;7.65;;;;;;;7.31;78.78;98811.72;6226377;23;20013;-89
2023/10/19 18:55:58;;;;;;;11.63;7.18;;;;;;;7.86;78.84;98893.25;6152534;23;20139;-90
2023/10/19 18:58:25;;;;;;;19.58;7.30;;;;;;;7.50;78.67;98833.34;6157976;23;20405;-91
2023/10/19 19:00:58;;;;;;;17.20;7.72;;;;;;;7.44;78.62;98826.41;6184539;23;20016;-92
2023/10/19 19:03:45;;;;;;;16.83;7.97;;;;;;;7.42;78.61;98812.31;6160483;23;20494;-92
2023/10/19 19:06:13;;;;;;;11.25;7.28;;;;;;;7.66;78.78;98859.13;6192527;23;20079;-94
2023/10/19 19:08:49;;;;;;;11.40;6.93;;;;;;;7.64;78.51;98845.00;6187469;23;20617;-92
2023/10/19 19:11:19;;;;;;;17.67;8.43;;;;;;;7.68;78.30;98847.91;6158710;23;20024;-92
2023/10/19 19:13:47;;;;;;;20.00;10.57;;;;;;;7.66;78.43;98850.97;6159570;23;20012;-93
2023/10/19 19:16:19;;;;;;;25.75;11.75;;;;;;;7.95;78.70;98899.59;6161118;23;20017;-93
2023/10/19 19:18:47;;;;;;;23.33;11.27;;;;;;;7.51;78.82;98833.03;6184275;23;20034;-92
2023/10/19 19:21:15;;;;;;;15.75;8.02;;;;;;;7.82;79.00;98878.66;6162101;23;20043;-88
2023/10/19 19:23:42;;;;;;;15.52;7.90;;;;;;;7.55;79.21;98838.69;6158866;23;20038;-90
2023/10/19 19:26:16;;;;;;;20.63;9.57;;;;;;;7.57;78.87;98830.22;6184484;23;20020;-93
2023/10/19 19:28:46;;;;;;;25.48;10.55;;;;;;;7.35;79.10;98793.72;6185837;23;20017;-93
2023/10/19 19:31:18;;;;;;;20.73;10.50;;;;;;;8.05;79.15;98906.72;6184338;23;20017;-93
2023/10/19 19:33:53;;;;;;;22.02;11.45;;;;;;;7.46;79.02;98818.75;6162243;23;20044;-94
2023/10/19 19:36:23;;;;;;;22.20;11.75;;;;;;;7.50;79.22;98830.63;6188153;23;20013;-95
2023/10/19 19:38:51;;;;;;;28.40;13.32;;;;;;;7.19;78.99;98787.78;6182516;23;20025;-95
2023/10/19 19:41:28;;;;;;;35.55;14.95;;;;;;;7.51;79.13;98835.75;6155533;23;20016;-92
2023/10/19 19:43:57;;;;;;;52.33;16.10;;;;;;;7.81;78.61;98870.78;6180809;23;20487;-93
2023/10/19 19:46:23;;;;;;;68.70;15.88;;;;;;;8.04;78.87;98910.53;6129168;23;20017;-92
2023/10/19 19:48:51;;;;;;;57.70;15.88;;;;;;;7.77;78.90;98859.69;6109411;23;20021;-90
2023/10/19 19:51:19;;;;;;;57.22;18.27;;;;;;;7.63;78.58;98834.44;6177957;23;20025;-91
2023/10/19 19:53:49;;;;;;;84.93;32.58;;;;;;;7.83;78.63;98872.09;6177122;23;20070;-90
2023/10/19 19:56:15;;;;;;;87.63;39.75;;;;;;;7.89;78.05;98879.03;6148594;23;20021;-89
2023/10/19 19:58:44;;;;;;;82.30;36.78;;;;;;;7.66;78.47;98836.56;6129007;23;20025;-89
2023/10/19 20:01:16;;;;;;;54.88;25.20;;;;;;;7.85;78.19;98866.34;6153096;23;20024;-90
2023/10/19 20:03:51;;;;;;;63.00;25.02;;;;;;;7.66;78.00;98839.28;6208940;23;20016;-89
2023/10/19 20:06:19;;;;;;;70.43;27.27;;;;;;;7.45;78.05;98800.81;6160084;23;20048;-92